Flight Track Log - Related Links

Times and Time Zones

All times are in EST time to prevent confusion due to time zone crossing. See the GJS3606 flight status page for this flight to view local times or setup timezone preferences in your user account.

Time Position Orientation Groundspeed Altitude Reporting Facility
EST Latitude Longitude Course Direction KTS MPH feet Rate Location/Type
Thu 07:44:28 AM 43.6333 -79.6167 117° Southeast 150 173 2,800  Level Toronto Center
Thu 07:45:28 AM 43.6000 -79.6500 216° Southwest 190 219 5,700 2,700 Climbing Toronto Center
Thu 07:46:28 AM 43.5333 -79.6333 170° South 270 311 8,200 3,050 Climbing Toronto Center
Thu 07:47:00 AM 43.2822 -79.4359 125° Southeast  Level Estimated
Thu 07:47:28 AM 43.4500 -79.5833 156° South 300 345 11,800  Level Toronto Center
Thu 07:48:00 AM 43.1834 -79.3876 119° Southeast  Level Estimated
Thu 07:48:28 AM 43.4333 -79.4500 100° East 380 437 13,800  Level Toronto Center
Thu 07:49:00 AM 43.0845 -79.3395 117° Southeast  Level Estimated
Thu 07:49:28 AM 43.4333 -79.2833 90° East 410 472 16,200  Level Toronto Center
Thu 07:50:28 AM 43.4333 -79.1500 90° East 430 495 18,100 1,900 Climbing Toronto Center
Thu 07:51:28 AM 43.4167 -78.9667 97° East 430 495 20,000 1,450 Climbing Toronto Center
Thu 07:52:28 AM 43.3833 -78.8000 105° East 430 495 21,000 500 Climbing Toronto Center
Thu 07:53:28 AM 43.3167 -78.6667 124° Southeast 450 518 21,000  Level Toronto Center
Thu 07:54:28 AM 43.2333 -78.5333 131° Southeast 450 518 21,000  Level Toronto Center
Thu 07:55:28 AM 43.1333 -78.4500 149° Southeast 430 495 21,000  Level Toronto Center
Thu 07:56:28 AM 43.0167 -78.4167 168° South 400 460 21,000  Level Toronto Center
Thu 07:57:28 AM 42.9167 -78.4000 173° South 400 460 21,000  Level Toronto Center
Thu 07:58:28 AM 42.8000 -78.3833 174° South 400 460 21,000  Level Toronto Center
Thu 07:59:28 AM 42.6833 -78.3667 174° South 400 460 21,000  Level Toronto Center
Thu 08:00:28 AM 42.5667 -78.3500 174° South 400 460 21,000  Level Toronto Center
Thu 08:01:28 AM 42.4667 -78.3167 166° South 400 460 21,000  Level Toronto Center
Thu 08:02:28 AM 42.3667 -78.3167 180° South 400 460 21,000  Level Toronto Center
Thu 08:03:28 AM 42.2500 -78.3000 174° South 400 460 21,000  Level Toronto Center
Thu 08:03:58 AM 42.2131 -78.3119 193° South 403 464 21,000  Level Cleveland Center
Thu 08:05:00 AM 42.0989 -78.2925 173° South 404 465 21,000  Level Cleveland Center
Thu 08:06:02 AM 41.9869 -78.2731 173° South 405 466 21,000  Level Cleveland Center
Thu 08:07:04 AM 41.8739 -78.2544 173° South 407 468 21,000  Level Cleveland Center
Thu 08:08:06 AM 41.7611 -78.2358 173° South 408 470 21,000  Level Cleveland Center
Thu 08:09:08 AM 41.6261 -78.2125 173° South 408 470 21,000  Level Cleveland Center
Thu 08:10:10 AM 41.5136 -78.1933 173° South 408 470 21,000  Level Cleveland Center
Thu 08:11:12 AM 41.4008 -78.1744 173° South 408 470 21,000  Level Cleveland Center
Thu 08:12:15 AM 41.2853 -78.1572 174° South 410 472 21,000  Level New York Center
Thu 08:13:15 AM 41.1769 -78.1233 167° South 410 472 21,000  Level New York Center
Thu 08:14:16 AM 41.0681 -78.0647 158° South 410 472 21,000  Level New York Center
Thu 08:15:15 AM 40.9597 -77.9981 155° Southeast 415 478 21,000 -1,513 Level New York Center
Thu 08:16:15 AM 40.8572 -77.9350 155° Southeast 421 484 18,000 -850 Descending New York Center
Thu 08:17:15 AM 40.7528 -77.8694 155° Southeast 426 490 19,300 146 Climbing New York Center
Thu 08:18:18 AM 40.6561 -77.8103 155° Southeast 408 470 18,300 -650 Descending New York Center
Thu 08:19:15 AM 40.5575 -77.7508 155° Southeast 402 463 18,000 -153 Descending New York Center
Thu 08:20:16 AM 40.4608 -77.6919 155° Southeast 397 457 18,000  Level New York Center
Thu 08:21:15 AM 40.3519 -77.6294 156° South 392 451 18,000  Level New York Center
Thu 08:22:16 AM 40.2533 -77.5706 155° Southeast 392 451 18,000 -650 Level New York Center
Thu 08:23:15 AM 40.1586 -77.5097 154° Southeast 392 451 16,700 -1,420 Descending New York Center
Thu 08:25:43 AM 39.9333 -77.3667 154° Southeast 357 411 13,100 -1,099 Descending Potomac TRACON
Thu 08:26:37 AM 39.8500 -77.3500 171° South 351 404 13,000 -53 Descending Potomac TRACON
Thu 08:27:37 AM 39.7667 -77.3667 189° South 332 382 13,000 -522 Level Potomac TRACON
Thu 08:28:32 AM 39.6667 -77.3833 187° South 333 383 12,000 -1,316 Descending Potomac TRACON
Thu 08:29:31 AM 39.5833 -77.4000 189° South 329 379 10,500 -1,210 Descending Potomac TRACON
Thu 08:30:31 AM 39.5000 -77.4000 180° South 278 320 9,600 -1,240 Descending Potomac TRACON
Thu 08:31:32 AM 39.4333 -77.4167 191° South 260 299 8,000 -1,513 Descending Potomac TRACON
Thu 08:32:26 AM 39.3667 -77.4333 191° South 256 295 6,700 -1,500 Descending Potomac TRACON
Thu 08:33:20 AM 39.3167 -77.4333 180° South 249 287 5,300 -895 Descending Potomac TRACON
Thu 08:34:20 AM 39.2500 -77.4500 191° South 232 267 5,000 -250 Descending Potomac TRACON
Thu 08:35:20 AM 39.1833 -77.4500 180° South 225 259 4,800 -850 Descending Potomac TRACON
Thu 08:36:20 AM 39.1167 -77.4500 180° South 228 262 3,300 -1,316 Descending Potomac TRACON
Thu 08:37:14 AM 39.0667 -77.4667 195° South 206 237 2,300 -1,000 Descending Potomac TRACON
Thu 08:38:14 AM 39.0333 -77.4667 180° South 125 144 1,400 -750 Descending Potomac TRACON
Thu 08:39:14 AM 39.0000 -77.4667 180° South 122 140 800 -600 Descending Potomac TRACON

Login

Don't have an account? Register now (free) for customized features, flight alerts, and more!